sensor_id;sensor_type;location;lat;lon;timestamp;temperature;humidity
22192;DHT22;11261;52.456;10.850;2022-12-17T00:01:32;-1.10;99.90
22192;DHT22;11261;52.456;10.850;2022-12-17T00:04:18;-1.10;99.90
22192;DHT22;11261;52.456;10.850;2022-12-17T00:07:03;-1.10;99.90
22192;DHT22;11261;52.456;10.850;2022-12-17T00:09:49;-1.10;99.90
22192;DHT22;11261;52.456;10.850;2022-12-17T00:12:39;-1.10;99.90
22192;DHT22;11261;52.456;10.850;2022-12-17T00:15:27;-1.10;99.90
22192;DHT22;11261;52.456;10.850;2022-12-17T00:18:12;-1.10;99.90
22192;DHT22;11261;52.456;10.850;2022-12-17T00:20:59;-1.10;99.90
22192;DHT22;11261;52.456;10.850;2022-12-17T00:23:45;-1.10;99.90
22192;DHT22;11261;52.456;10.850;2022-12-17T00:26:31;-1.20;99.90
22192;DHT22;11261;52.456;10.850;2022-12-17T00:29:17;-1.20;99.90
22192;DHT22;11261;52.456;10.850;2022-12-17T00:32:05;-1.20;99.90
22192;DHT22;11261;52.456;10.850;2022-12-17T00:34:50;-1.20;99.90
22192;DHT22;11261;52.456;10.850;2022-12-17T00:37:36;-1.30;99.90
22192;DHT22;11261;52.456;10.850;2022-12-17T00:40:22;-1.30;99.90
22192;DHT22;11261;52.456;10.850;2022-12-17T00:43:09;-1.30;99.90
22192;DHT22;11261;52.456;10.850;2022-12-17T00:46:04;-1.30;99.90
22192;DHT22;11261;52.456;10.850;2022-12-17T00:48:51;-1.40;99.90
22192;DHT22;11261;52.456;10.850;2022-12-17T00:51:37;-1.40;99.90
22192;DHT22;11261;52.456;10.850;2022-12-17T00:54:23;-1.50;99.90
22192;DHT22;11261;52.456;10.850;2022-12-17T00:57:08;-1.50;99.90
22192;DHT22;11261;52.456;10.850;2022-12-17T00:59:54;-1.50;99.90
22192;DHT22;11261;52.456;10.850;2022-12-17T01:02:40;-1.50;99.90
22192;DHT22;11261;52.456;10.850;2022-12-17T01:05:27;-1.60;99.90
22192;DHT22;11261;52.456;10.850;2022-12-17T01:08:14;-1.70;99.90
22192;DHT22;11261;52.456;10.850;2022-12-17T01:11:00;-1.70;99.90
22192;DHT22;11261;52.456;10.850;2022-12-17T01:13:46;-1.80;99.90
22192;DHT22;11261;52.456;10.850;2022-12-17T01:16:32;-1.90;99.90
22192;DHT22;11261;52.456;10.850;2022-12-17T01:19:17;-1.90;99.90
22192;DHT22;11261;52.456;10.850;2022-12-17T01:22:05;-1.90;99.90
22192;DHT22;11261;52.456;10.850;2022-12-17T01:24:51;-1.90;99.90
22192;DHT22;11261;52.456;10.850;2022-12-17T01:27:37;-1.80;99.90
22192;DHT22;11261;52.456;10.850;2022-12-17T01:30:23;-1.80;99.90
22192;DHT22;11261;52.456;10.850;2022-12-17T01:33:06;-1.90;99.90
22192;DHT22;11261;52.456;10.850;2022-12-17T01:35:54;-2.00;99.90
22192;DHT22;11261;52.456;10.850;2022-12-17T01:38:41;-2.10;99.90
22192;DHT22;11261;52.456;10.850;2022-12-17T01:41:27;-2.10;99.90
22192;DHT22;11261;52.456;10.850;2022-12-17T01:44:43;-2.10;99.90
22192;DHT22;11261;52.456;10.850;2022-12-17T01:47:32;-2.20;99.90
22192;DHT22;11261;52.456;10.850;2022-12-17T01:50:24;-2.20;99.90
22192;DHT22;11261;52.456;10.850;2022-12-17T01:53:10;-2.20;99.90
22192;DHT22;11261;52.456;10.850;2022-12-17T01:55:58;-2.30;99.90
22192;DHT22;11261;52.456;10.850;2022-12-17T01:58:40;-2.20;99.90
22192;DHT22;11261;52.456;10.850;2022-12-17T02:01:26;-2.30;99.90
22192;DHT22;11261;52.456;10.850;2022-12-17T02:04:14;-2.30;99.90
22192;DHT22;11261;52.456;10.850;2022-12-17T02:07:11;-2.30;99.90
22192;DHT22;11261;52.456;10.850;2022-12-17T02:10:07;-2.30;99.90
22192;DHT22;11261;52.456;10.850;2022-12-17T02:13:05;-2.40;99.90
22192;DHT22;11261;52.456;10.850;2022-12-17T02:15:55;-2.40;99.90
22192;DHT22;11261;52.456;10.850;2022-12-17T02:18:46;-2.40;99.90
22192;DHT22;11261;52.456;10.850;2022-12-17T02:21:33;-2.40;99.90
22192;DHT22;11261;52.456;10.850;2022-12-17T02:24:27;-2.40;99.90
22192;DHT22;11261;52.456;10.850;2022-12-17T02:27:16;-2.50;99.90
22192;DHT22;11261;52.456;10.850;2022-12-17T02:30:05;-2.50;99.90
22192;DHT22;11261;52.456;10.850;2022-12-17T02:32:52;-2.50;99.90
22192;DHT22;11261;52.456;10.850;2022-12-17T02:35:41;-2.60;99.90
22192;DHT22;11261;52.456;10.850;2022-12-17T02:38:30;-2.60;99.90
22192;DHT22;11261;52.456;10.850;2022-12-17T02:41:18;-2.60;99.90
22192;DHT22;11261;52.456;10.850;2022-12-17T02:44:08;-2.70;99.90
22192;DHT22;11261;52.456;10.850;2022-12-17T02:46:56;-2.70;99.90
22192;DHT22;11261;52.456;10.850;2022-12-17T02:49:42;-2.70;99.90
22192;DHT22;11261;52.456;10.850;2022-12-17T02:52:29;-2.80;99.90
22192;DHT22;11261;52.456;10.850;2022-12-17T02:55:15;-2.70;99.90
22192;DHT22;11261;52.456;10.850;2022-12-17T02:58:01;-2.50;99.90
22192;DHT22;11261;52.456;10.850;2022-12-17T03:00:48;-2.60;99.90
22192;DHT22;11261;52.456;10.850;2022-12-17T03:03:35;-2.50;99.90
22192;DHT22;11261;52.456;10.850;2022-12-17T03:06:21;-2.80;99.90
22192;DHT22;11261;52.456;10.850;2022-12-17T03:09:06;-3.00;99.90
22192;DHT22;11261;52.456;10.850;2022-12-17T03:11:52;-2.90;99.90
22192;DHT22;11261;52.456;10.850;2022-12-17T03:14:38;-2.80;99.90
22192;DHT22;11261;52.456;10.850;2022-12-17T03:17:25;-2.60;99.90
22192;DHT22;11261;52.456;10.850;2022-12-17T03:20:10;-2.60;99.90
22192;DHT22;11261;52.456;10.850;2022-12-17T03:23:01;-2.70;99.90
22192;DHT22;11261;52.456;10.850;2022-12-17T03:25:47;-2.70;99.90
22192;DHT22;11261;52.456;10.850;2022-12-17T03:28:33;-2.70;99.90
22192;DHT22;11261;52.456;10.850;2022-12-17T03:31:19;-2.60;99.90
22192;DHT22;11261;52.456;10.850;2022-12-17T03:34:06;-2.50;99.90
22192;DHT22;11261;52.456;10.850;2022-12-17T03:36:52;-2.40;99.90
22192;DHT22;11261;52.456;10.850;2022-12-17T03:39:38;-2.30;99.90
22192;DHT22;11261;52.456;10.850;2022-12-17T03:42:24;-2.40;99.90
22192;DHT22;11261;52.456;10.850;2022-12-17T03:45:10;-2.60;99.90
22192;DHT22;11261;52.456;10.850;2022-12-17T03:48:03;-2.70;99.90
22192;DHT22;11261;52.456;10.850;2022-12-17T03:50:51;-2.80;99.90
22192;DHT22;11261;52.456;10.850;2022-12-17T03:53:38;-2.70;99.90
22192;DHT22;11261;52.456;10.850;2022-12-17T03:56:24;-2.50;99.90
22192;DHT22;11261;52.456;10.850;2022-12-17T03:59:10;-2.40;99.90
22192;DHT22;11261;52.456;10.850;2022-12-17T04:01:55;-2.50;99.90
22192;DHT22;11261;52.456;10.850;2022-12-17T04:04:41;-2.50;99.90
22192;DHT22;11261;52.456;10.850;2022-12-17T04:07:28;-2.50;99.90
22192;DHT22;11261;52.456;10.850;2022-12-17T04:10:28;-2.40;99.90
22192;DHT22;11261;52.456;10.850;2022-12-17T04:13:14;-2.50;99.90
22192;DHT22;11261;52.456;10.850;2022-12-17T04:16:06;-2.40;99.90
22192;DHT22;11261;52.456;10.850;2022-12-17T04:18:52;-2.40;99.90
22192;DHT22;11261;52.456;10.850;2022-12-17T04:21:37;-2.20;99.90
22192;DHT22;11261;52.456;10.850;2022-12-17T04:24:24;-2.20;99.90
22192;DHT22;11261;52.456;10.850;2022-12-17T04:27:09;-2.30;99.90
22192;DHT22;11261;52.456;10.850;2022-12-17T04:29:55;-2.30;99.90
22192;DHT22;11261;52.456;10.850;2022-12-17T04:32:40;-2.40;99.90
22192;DHT22;11261;52.456;10.850;2022-12-17T04:35:26;-2.40;99.90
22192;DHT22;11261;52.456;10.850;2022-12-17T04:38:17;-2.30;99.90
22192;DHT22;11261;52.456;10.850;2022-12-17T04:41:04;-2.20;99.90
22192;DHT22;11261;52.456;10.850;2022-12-17T04:44:02;-2.20;99.90
22192;DHT22;11261;52.456;10.850;2022-12-17T04:46:48;-2.30;99.90
22192;DHT22;11261;52.456;10.850;2022-12-17T04:49:33;-2.10;99.90
22192;DHT22;11261;52.456;10.850;2022-12-17T04:52:18;-2.20;99.90
22192;DHT22;11261;52.456;10.850;2022-12-17T04:55:05;-2.20;99.90
22192;DHT22;11261;52.456;10.850;2022-12-17T04:57:52;-2.20;99.90
22192;DHT22;11261;52.456;10.850;2022-12-17T05:00:38;-2.20;99.90
22192;DHT22;11261;52.456;10.850;2022-12-17T05:03:23;-2.20;99.90
22192;DHT22;11261;52.456;10.850;2022-12-17T05:06:09;-2.20;99.90
22192;DHT22;11261;52.456;10.850;2022-12-17T05:08:55;-2.20;99.90
22192;DHT22;11261;52.456;10.850;2022-12-17T05:11:41;-2.20;99.90
22192;DHT22;11261;52.456;10.850;2022-12-17T05:14:28;-2.20;99.90
22192;DHT22;11261;52.456;10.850;2022-12-17T05:17:13;-2.30;99.90
22192;DHT22;11261;52.456;10.850;2022-12-17T05:19:59;-2.20;99.90
22192;DHT22;11261;52.456;10.850;2022-12-17T05:22:45;-2.20;99.90
22192;DHT22;11261;52.456;10.850;2022-12-17T05:25:31;-2.20;99.90
22192;DHT22;11261;52.456;10.850;2022-12-17T05:28:19;-2.20;99.90
22192;DHT22;11261;52.456;10.850;2022-12-17T05:31:06;-2.20;99.90
22192;DHT22;11261;52.456;10.850;2022-12-17T05:33:51;-2.20;99.90
22192;DHT22;11261;52.456;10.850;2022-12-17T05:36:36;-2.20;99.90
22192;DHT22;11261;52.456;10.850;2022-12-17T05:39:22;-2.00;99.90
22192;DHT22;11261;52.456;10.850;2022-12-17T05:42:08;-2.00;99.90
22192;DHT22;11261;52.456;10.850;2022-12-17T05:44:53;-2.10;99.90
22192;DHT22;11261;52.456;10.850;2022-12-17T05:47:41;-2.00;99.90
22192;DHT22;11261;52.456;10.850;2022-12-17T05:50:26;-1.80;99.90
22192;DHT22;11261;52.456;10.850;2022-12-17T05:53:12;-1.80;99.90
22192;DHT22;11261;52.456;10.850;2022-12-17T05:55:58;-1.70;99.90
22192;DHT22;11261;52.456;10.850;2022-12-17T05:58:43;-1.80;99.90
22192;DHT22;11261;52.456;10.850;2022-12-17T06:01:29;-1.90;99.90
22192;DHT22;11261;52.456;10.850;2022-12-17T06:04:17;-2.10;99.90
22192;DHT22;11261;52.456;10.850;2022-12-17T06:06:59;-2.00;99.90
22192;DHT22;11261;52.456;10.850;2022-12-17T06:09:44;-1.90;99.90
22192;DHT22;11261;52.456;10.850;2022-12-17T06:12:30;-2.00;99.90
22192;DHT22;11261;52.456;10.850;2022-12-17T06:15:16;-2.10;99.90
22192;DHT22;11261;52.456;10.850;2022-12-17T06:18:01;-1.90;99.90
22192;DHT22;11261;52.456;10.850;2022-12-17T06:20:51;-1.90;99.90
22192;DHT22;11261;52.456;10.850;2022-12-17T06:23:36;-1.90;99.90
22192;DHT22;11261;52.456;10.850;2022-12-17T06:26:22;-1.90;99.90
22192;DHT22;11261;52.456;10.850;2022-12-17T06:29:22;-1.90;99.90
22192;DHT22;11261;52.456;10.850;2022-12-17T06:32:08;-1.90;99.90
22192;DHT22;11261;52.456;10.850;2022-12-17T06:34:54;-1.90;99.90
22192;DHT22;11261;52.456;10.850;2022-12-17T06:37:41;-2.00;99.90
22192;DHT22;11261;52.456;10.850;2022-12-17T06:40:27;-2.00;99.90
22192;DHT22;11261;52.456;10.850;2022-12-17T06:43:13;-1.90;99.90
22192;DHT22;11261;52.456;10.850;2022-12-17T06:45:58;-1.80;99.90
22192;DHT22;11261;52.456;10.850;2022-12-17T06:48:44;-2.00;99.90
22192;DHT22;11261;52.456;10.850;2022-12-17T06:51:30;-2.00;99.90
22192;DHT22;11261;52.456;10.850;2022-12-17T06:54:17;-1.90;99.90
22192;DHT22;11261;52.456;10.850;2022-12-17T06:57:02;-1.90;99.90
22192;DHT22;11261;52.456;10.850;2022-12-17T06:59:48;-2.00;99.90
22192;DHT22;11261;52.456;10.850;2022-12-17T07:02:34;-1.90;99.90
22192;DHT22;11261;52.456;10.850;2022-12-17T07:05:20;-1.90;99.90
22192;DHT22;11261;52.456;10.850;2022-12-17T07:08:06;-1.90;99.90
22192;DHT22;11261;52.456;10.850;2022-12-17T07:10:53;-2.10;99.90
22192;DHT22;11261;52.456;10.850;2022-12-17T07:13:39;-2.10;99.90
22192;DHT22;11261;52.456;10.850;2022-12-17T07:16:24;-2.10;99.90
22192;DHT22;11261;52.456;10.850;2022-12-17T07:19:10;-1.90;99.90
22192;DHT22;11261;52.456;10.850;2022-12-17T07:21:56;-1.90;99.90
22192;DHT22;11261;52.456;10.850;2022-12-17T07:24:41;-2.00;99.90
22192;DHT22;11261;52.456;10.850;2022-12-17T07:27:29;-2.20;99.90
22192;DHT22;11261;52.456;10.850;2022-12-17T07:30:15;-1.90;99.90
22192;DHT22;11261;52.456;10.850;2022-12-17T07:33:02;-2.20;99.90
22192;DHT22;11261;52.456;10.850;2022-12-17T07:35:48;-2.00;99.90
22192;DHT22;11261;52.456;10.850;2022-12-17T07:38:36;-1.80;99.90
22192;DHT22;11261;52.456;10.850;2022-12-17T07:41:22;-1.80;99.90
22192;DHT22;11261;52.456;10.850;2022-12-17T07:44:09;-1.70;99.90
22192;DHT22;11261;52.456;10.850;2022-12-17T07:46:54;-1.60;99.90
22192;DHT22;11261;52.456;10.850;2022-12-17T07:49:39;-1.60;99.90
22192;DHT22;11261;52.456;10.850;2022-12-17T07:52:25;-1.60;99.90
22192;DHT22;11261;52.456;10.850;2022-12-17T07:55:11;-1.50;99.90
22192;DHT22;11261;52.456;10.850;2022-12-17T07:57:57;-1.60;99.90
22192;DHT22;11261;52.456;10.850;2022-12-17T08:00:45;-1.30;99.90
22192;DHT22;11261;52.456;10.850;2022-12-17T08:03:31;-1.10;99.90
22192;DHT22;11261;52.456;10.850;2022-12-17T08:06:17;-1.10;99.90
22192;DHT22;11261;52.456;10.850;2022-12-17T08:09:03;-1.20;99.90
22192;DHT22;11261;52.456;10.850;2022-12-17T08:11:49;-1.10;99.90
22192;DHT22;11261;52.456;10.850;2022-12-17T08:14:35;-1.10;99.90
22192;DHT22;11261;52.456;10.850;2022-12-17T08:17:22;-1.10;99.90
22192;DHT22;11261;52.456;10.850;2022-12-17T08:20:09;-1.10;99.90
22192;DHT22;11261;52.456;10.850;2022-12-17T08:23:00;-1.10;99.90
22192;DHT22;11261;52.456;10.850;2022-12-17T08:25:46;-1.00;99.90
22192;DHT22;11261;52.456;10.850;2022-12-17T08:28:31;-1.30;99.90
22192;DHT22;11261;52.456;10.850;2022-12-17T08:31:18;-1.60;99.90
22192;DHT22;11261;52.456;10.850;2022-12-17T08:34:05;-1.50;99.90
22192;DHT22;11261;52.456;10.850;2022-12-17T08:36:51;-1.30;99.90
22192;DHT22;11261;52.456;10.850;2022-12-17T08:39:37;-1.20;99.90
22192;DHT22;11261;52.456;10.850;2022-12-17T08:42:23;-1.20;99.90
22192;DHT22;11261;52.456;10.850;2022-12-17T08:45:09;-1.30;99.90
22192;DHT22;11261;52.456;10.850;2022-12-17T08:48:01;-1.20;99.90
22192;DHT22;11261;52.456;10.850;2022-12-17T08:50:48;-1.30;99.90
22192;DHT22;11261;52.456;10.850;2022-12-17T08:53:34;-1.20;99.90
22192;DHT22;11261;52.456;10.850;2022-12-17T08:56:20;-1.20;99.90
22192;DHT22;11261;52.456;10.850;2022-12-17T08:59:05;-1.10;99.90
22192;DHT22;11261;52.456;10.850;2022-12-17T09:01:51;-1.10;99.90
22192;DHT22;11261;52.456;10.850;2022-12-17T09:04:52;-1.10;99.90
22192;DHT22;11261;52.456;10.850;2022-12-17T09:07:39;-1.00;99.90
22192;DHT22;11261;52.456;10.850;2022-12-17T09:10:25;-1.00;99.90
22192;DHT22;11261;52.456;10.850;2022-12-17T09:13:10;-0.90;99.90
22192;DHT22;11261;52.456;10.850;2022-12-17T09:15:56;-0.80;99.90
22192;DHT22;11261;52.456;10.850;2022-12-17T09:18:42;-0.80;99.90
22192;DHT22;11261;52.456;10.850;2022-12-17T09:21:29;-0.70;99.90
22192;DHT22;11261;52.456;10.850;2022-12-17T09:24:17;-0.60;99.90
22192;DHT22;11261;52.456;10.850;2022-12-17T09:27:11;-0.60;99.90
22192;DHT22;11261;52.456;10.850;2022-12-17T09:29:56;-0.50;99.90
22192;DHT22;11261;52.456;10.850;2022-12-17T09:32:42;-0.40;99.90
22192;DHT22;11261;52.456;10.850;2022-12-17T09:35:28;-0.40;99.90
22192;DHT22;11261;52.456;10.850;2022-12-17T09:38:13;-0.40;99.90
22192;DHT22;11261;52.456;10.850;2022-12-17T09:41:06;-0.40;99.90
22192;DHT22;11261;52.456;10.850;2022-12-17T09:44:14;-0.30;99.90
22192;DHT22;11261;52.456;10.850;2022-12-17T09:47:06;-0.20;99.90
22192;DHT22;11261;52.456;10.850;2022-12-17T09:49:55;0.00;99.90
22192;DHT22;11261;52.456;10.850;2022-12-17T09:52:42;0.00;99.90
22192;DHT22;11261;52.456;10.850;2022-12-17T09:55:46;-0.10;99.90
22192;DHT22;11261;52.456;10.850;2022-12-17T09:58:38;0.00;99.90
22192;DHT22;11261;52.456;10.850;2022-12-17T10:01:25;-0.10;99.90
22192;DHT22;11261;52.456;10.850;2022-12-17T10:04:31;0.10;99.90
22192;DHT22;11261;52.456;10.850;2022-12-17T10:07:21;0.00;99.90
22192;DHT22;11261;52.456;10.850;2022-12-17T10:10:16;0.20;99.90
22192;DHT22;11261;52.456;10.850;2022-12-17T10:13:09;0.10;99.90
22192;DHT22;11261;52.456;10.850;2022-12-17T10:15:56;0.20;99.90
22192;DHT22;11261;52.456;10.850;2022-12-17T10:18:43;0.30;99.90
22192;DHT22;11261;52.456;10.850;2022-12-17T10:21:29;0.40;99.90
22192;DHT22;11261;52.456;10.850;2022-12-17T10:24:15;0.20;99.90
22192;DHT22;11261;52.456;10.850;2022-12-17T10:27:08;0.40;99.90
22192;DHT22;11261;52.456;10.850;2022-12-17T10:29:54;0.50;99.90
22192;DHT22;11261;52.456;10.850;2022-12-17T10:32:41;0.50;99.90
22192;DHT22;11261;52.456;10.850;2022-12-17T10:35:34;0.50;99.90
22192;DHT22;11261;52.456;10.850;2022-12-17T10:38:21;0.70;99.90
22192;DHT22;11261;52.456;10.850;2022-12-17T10:41:19;0.60;99.90
22192;DHT22;11261;52.456;10.850;2022-12-17T10:44:19;0.70;99.90
22192;DHT22;11261;52.456;10.850;2022-12-17T10:47:01;0.70;99.90
22192;DHT22;11261;52.456;10.850;2022-12-17T10:49:57;0.90;99.90
22192;DHT22;11261;52.456;10.850;2022-12-17T10:52:44;0.80;99.90
22192;DHT22;11261;52.456;10.850;2022-12-17T10:55:30;0.70;99.90
22192;DHT22;11261;52.456;10.850;2022-12-17T10:58:19;0.80;99.90
22192;DHT22;11261;52.456;10.850;2022-12-17T11:01:22;1.10;99.90
22192;DHT22;11261;52.456;10.850;2022-12-17T11:04:23;1.10;99.90
22192;DHT22;11261;52.456;10.850;2022-12-17T11:07:14;1.00;99.90
22192;DHT22;11261;52.456;10.850;2022-12-17T11:10:02;1.00;99.90
22192;DHT22;11261;52.456;10.850;2022-12-17T11:12:53;1.00;99.90
22192;DHT22;11261;52.456;10.850;2022-12-17T11:15:41;1.10;99.90
22192;DHT22;11261;52.456;10.850;2022-12-17T11:18:34;1.20;99.90
22192;DHT22;11261;52.456;10.850;2022-12-17T11:21:25;1.20;99.90
22192;DHT22;11261;52.456;10.850;2022-12-17T11:24:18;1.30;99.90
22192;DHT22;11261;52.456;10.850;2022-12-17T11:27:08;1.40;99.90
22192;DHT22;11261;52.456;10.850;2022-12-17T11:29:55;1.30;99.90
22192;DHT22;11261;52.456;10.850;2022-12-17T11:33:01;1.30;99.90
22192;DHT22;11261;52.456;10.850;2022-12-17T11:35:53;1.30;99.90
22192;DHT22;11261;52.456;10.850;2022-12-17T11:38:46;1.30;99.90
22192;DHT22;11261;52.456;10.850;2022-12-17T11:41:43;1.30;99.90
22192;DHT22;11261;52.456;10.850;2022-12-17T11:44:46;1.00;99.90
22192;DHT22;11261;52.456;10.850;2022-12-17T11:47:41;1.10;99.90
22192;DHT22;11261;52.456;10.850;2022-12-17T11:50:32;1.20;99.90
22192;DHT22;11261;52.456;10.850;2022-12-17T11:53:35;1.30;99.90
22192;DHT22;11261;52.456;10.850;2022-12-17T11:56:26;1.30;99.90
22192;DHT22;11261;52.456;10.850;2022-12-17T11:59:24;1.30;99.90
22192;DHT22;11261;52.456;10.850;2022-12-17T12:02:31;1.40;99.90
22192;DHT22;11261;52.456;10.850;2022-12-17T12:05:24;1.40;99.90
22192;DHT22;11261;52.456;10.850;2022-12-17T12:08:25;1.50;99.90
22192;DHT22;11261;52.456;10.850;2022-12-17T12:11:21;1.50;99.90
22192;DHT22;11261;52.456;10.850;2022-12-17T12:14:19;1.50;99.90
22192;DHT22;11261;52.456;10.850;2022-12-17T12:17:18;1.60;99.90
22192;DHT22;11261;52.456;10.850;2022-12-17T12:20:15;1.60;99.90
22192;DHT22;11261;52.456;10.850;2022-12-17T12:23:13;1.60;99.90
22192;DHT22;11261;52.456;10.850;2022-12-17T12:26:11;1.70;99.90
22192;DHT22;11261;52.456;10.850;2022-12-17T12:29:02;1.70;99.90
22192;DHT22;11261;52.456;10.850;2022-12-17T12:31:56;1.60;99.90
22192;DHT22;11261;52.456;10.850;2022-12-17T12:34:44;1.70;99.90
22192;DHT22;11261;52.456;10.850;2022-12-17T12:37:33;1.60;99.90
22192;DHT22;11261;52.456;10.850;2022-12-17T12:40:26;1.70;99.90
22192;DHT22;11261;52.456;10.850;2022-12-17T12:43:18;1.90;99.90
22192;DHT22;11261;52.456;10.850;2022-12-17T12:46:08;1.90;99.90
22192;DHT22;11261;52.456;10.850;2022-12-17T12:49:11;1.90;99.90
22192;DHT22;11261;52.456;10.850;2022-12-17T12:51:58;1.80;99.90
22192;DHT22;11261;52.456;10.850;2022-12-17T12:54:52;1.80;99.90
22192;DHT22;11261;52.456;10.850;2022-12-17T12:57:40;1.80;99.90
22192;DHT22;11261;52.456;10.850;2022-12-17T13:00:30;1.70;99.90
22192;DHT22;11261;52.456;10.850;2022-12-17T13:03:26;1.70;99.90
22192;DHT22;11261;52.456;10.850;2022-12-17T13:06:38;1.80;99.90
22192;DHT22;11261;52.456;10.850;2022-12-17T13:09:19;1.40;99.90
22192;DHT22;11261;52.456;10.850;2022-12-17T13:11:49;1.40;99.90
22192;DHT22;11261;52.456;10.850;2022-12-17T13:14:22;1.30;99.90
22192;DHT22;11261;52.456;10.850;2022-12-17T13:16:53;1.50;99.90
22192;DHT22;11261;52.456;10.850;2022-12-17T13:19:34;1.50;99.90
22192;DHT22;11261;52.456;10.850;2022-12-17T13:22:23;1.50;99.90
22192;DHT22;11261;52.456;10.850;2022-12-17T13:24:55;1.40;99.90
22192;DHT22;11261;52.456;10.850;2022-12-17T13:27:28;1.40;99.90
22192;DHT22;11261;52.456;10.850;2022-12-17T13:29:57;1.40;99.90
22192;DHT22;11261;52.456;10.850;2022-12-17T13:32:28;1.40;99.90
22192;DHT22;11261;52.456;10.850;2022-12-17T13:35:05;1.30;99.90
22192;DHT22;11261;52.456;10.850;2022-12-17T13:37:48;1.40;99.90
22192;DHT22;11261;52.456;10.850;2022-12-17T13:40:28;1.40;99.90
22192;DHT22;11261;52.456;10.850;2022-12-17T13:43:01;1.40;99.90
22192;DHT22;11261;52.456;10.850;2022-12-17T13:45:31;1.40;99.90
22192;DHT22;11261;52.456;10.850;2022-12-17T13:48:02;1.30;99.90
22192;DHT22;11261;52.456;10.850;2022-12-17T13:50:30;1.30;99.90
22192;DHT22;11261;52.456;10.850;2022-12-17T13:53:10;1.10;99.90
22192;DHT22;11261;52.456;10.850;2022-12-17T13:55:39;1.10;99.90
22192;DHT22;11261;52.456;10.850;2022-12-17T13:58:20;1.10;99.90
22192;DHT22;11261;52.456;10.850;2022-12-17T14:00:49;1.30;99.90
22192;DHT22;11261;52.456;10.850;2022-12-17T14:03:20;1.20;99.90
22192;DHT22;11261;52.456;10.850;2022-12-17T14:06:10;1.20;99.90
22192;DHT22;11261;52.456;10.850;2022-12-17T14:08:40;1.20;99.90
22192;DHT22;11261;52.456;10.850;2022-12-17T14:11:10;1.20;99.90
22192;DHT22;11261;52.456;10.850;2022-12-17T14:13:57;1.20;99.90
22192;DHT22;11261;52.456;10.850;2022-12-17T14:16:25;1.10;99.90
22192;DHT22;11261;52.456;10.850;2022-12-17T14:18:55;1.10;99.90
22192;DHT22;11261;52.456;10.850;2022-12-17T14:21:24;1.10;99.90
22192;DHT22;11261;52.456;10.850;2022-12-17T14:23:55;1.10;99.90
22192;DHT22;11261;52.456;10.850;2022-12-17T14:26:23;1.00;99.90
22192;DHT22;11261;52.456;10.850;2022-12-17T14:28:53;1.00;99.90
22192;DHT22;11261;52.456;10.850;2022-12-17T14:31:24;1.00;99.90
22192;DHT22;11261;52.456;10.850;2022-12-17T14:34:02;1.10;99.90
22192;DHT22;11261;52.456;10.850;2022-12-17T14:36:35;1.00;99.90
22192;DHT22;11261;52.456;10.850;2022-12-17T14:39:16;1.00;99.90
22192;DHT22;11261;52.456;10.850;2022-12-17T14:41:44;1.10;99.90
22192;DHT22;11261;52.456;10.850;2022-12-17T14:44:30;1.10;99.90
22192;DHT22;11261;52.456;10.850;2022-12-17T14:47:13;1.00;99.90
22192;DHT22;11261;52.456;10.850;2022-12-17T14:49:52;0.90;99.90
22192;DHT22;11261;52.456;10.850;2022-12-17T14:52:42;0.80;99.90
22192;DHT22;11261;52.456;10.850;2022-12-17T14:55:27;0.70;99.90
22192;DHT22;11261;52.456;10.850;2022-12-17T14:58:13;0.70;99.90
22192;DHT22;11261;52.456;10.850;2022-12-17T15:00:43;0.80;99.90
22192;DHT22;11261;52.456;10.850;2022-12-17T15:03:20;0.90;99.90
22192;DHT22;11261;52.456;10.850;2022-12-17T15:05:51;0.90;99.90
22192;DHT22;11261;52.456;10.850;2022-12-17T15:08:20;0.90;99.90
22192;DHT22;11261;52.456;10.850;2022-12-17T15:10:50;0.90;99.90
22192;DHT22;11261;52.456;10.850;2022-12-17T15:13:18;0.90;99.90
22192;DHT22;11261;52.456;10.850;2022-12-17T15:15:46;0.80;99.90
22192;DHT22;11261;52.456;10.850;2022-12-17T15:18:14;0.80;99.90
22192;DHT22;11261;52.456;10.850;2022-12-17T15:20:42;0.50;99.90
22192;DHT22;11261;52.456;10.850;2022-12-17T15:23:15;0.40;99.90
22192;DHT22;11261;52.456;10.850;2022-12-17T15:25:44;0.50;99.90
22192;DHT22;11261;52.456;10.850;2022-12-17T15:28:14;0.40;99.90
22192;DHT22;11261;52.456;10.850;2022-12-17T15:30:43;0.40;99.90
22192;DHT22;11261;52.456;10.850;2022-12-17T15:33:12;0.40;99.90
22192;DHT22;11261;52.456;10.850;2022-12-17T15:35:41;0.40;99.90
22192;DHT22;11261;52.456;10.850;2022-12-17T15:38:11;0.40;99.90
22192;DHT22;11261;52.456;10.850;2022-12-17T15:40:39;0.30;99.90
22192;DHT22;11261;52.456;10.850;2022-12-17T15:43:09;0.30;99.90
22192;DHT22;11261;52.456;10.850;2022-12-17T15:45:42;0.20;99.90
22192;DHT22;11261;52.456;10.850;2022-12-17T15:48:12;0.20;99.90
22192;DHT22;11261;52.456;10.850;2022-12-17T15:50:41;0.20;99.90
22192;DHT22;11261;52.456;10.850;2022-12-17T15:53:09;0.10;99.90
22192;DHT22;11261;52.456;10.850;2022-12-17T15:55:37;0.00;99.90
22192;DHT22;11261;52.456;10.850;2022-12-17T15:58:07;0.00;99.90
22192;DHT22;11261;52.456;10.850;2022-12-17T16:00:37;0.00;99.90
22192;DHT22;11261;52.456;10.850;2022-12-17T16:03:07;-0.10;99.90
22192;DHT22;11261;52.456;10.850;2022-12-17T16:05:35;-0.10;99.90
22192;DHT22;11261;52.456;10.850;2022-12-17T16:08:04;-0.20;99.90
22192;DHT22;11261;52.456;10.850;2022-12-17T16:10:32;-0.20;99.90
22192;DHT22;11261;52.456;10.850;2022-12-17T16:13:00;-0.30;99.90
22192;DHT22;11261;52.456;10.850;2022-12-17T16:15:28;-0.40;99.90
22192;DHT22;11261;52.456;10.850;2022-12-17T16:17:56;-0.40;99.90
22192;DHT22;11261;52.456;10.850;2022-12-17T16:20:26;-0.50;99.90
22192;DHT22;11261;52.456;10.850;2022-12-17T16:22:54;-0.70;99.90
22192;DHT22;11261;52.456;10.850;2022-12-17T16:25:22;-0.70;99.90
22192;DHT22;11261;52.456;10.850;2022-12-17T16:27:51;-0.70;99.90
22192;DHT22;11261;52.456;10.850;2022-12-17T16:30:21;-0.80;99.90
22192;DHT22;11261;52.456;10.850;2022-12-17T16:32:49;-0.70;99.90
22192;DHT22;11261;52.456;10.850;2022-12-17T16:35:17;-0.80;99.90
22192;DHT22;11261;52.456;10.850;2022-12-17T16:37:47;-0.80;99.90
22192;DHT22;11261;52.456;10.850;2022-12-17T16:40:15;-0.90;99.90
22192;DHT22;11261;52.456;10.850;2022-12-17T16:42:43;-0.90;99.90
22192;DHT22;11261;52.456;10.850;2022-12-17T16:45:11;-1.00;99.90
22192;DHT22;11261;52.456;10.850;2022-12-17T16:47:39;-1.00;99.90
22192;DHT22;11261;52.456;10.850;2022-12-17T16:50:08;-1.00;99.90
22192;DHT22;11261;52.456;10.850;2022-12-17T16:52:36;-1.10;99.90
22192;DHT22;11261;52.456;10.850;2022-12-17T16:55:06;-1.20;99.90
22192;DHT22;11261;52.456;10.850;2022-12-17T16:57:35;-1.20;99.90
22192;DHT22;11261;52.456;10.850;2022-12-17T17:00:03;-1.20;99.90
22192;DHT22;11261;52.456;10.850;2022-12-17T17:02:31;-1.30;99.90
22192;DHT22;11261;52.456;10.850;2022-12-17T17:05:00;-1.30;99.90
22192;DHT22;11261;52.456;10.850;2022-12-17T17:07:28;-1.40;99.90
22192;DHT22;11261;52.456;10.850;2022-12-17T17:09:56;-1.40;99.90